createdAt,value
2023-05-10T00:00:21.745Z,9.20
2023-05-10T00:02:50.025Z,10.02
2023-05-10T00:05:17.963Z,11.68
2023-05-10T00:07:48.583Z,9.87
2023-05-10T00:10:16.887Z,10.82
2023-05-10T00:12:44.834Z,11.35
2023-05-10T00:15:12.994Z,10.77
2023-05-10T00:17:41.405Z,10.20
2023-05-10T00:20:09.768Z,10.00
2023-05-10T00:22:37.660Z,9.95
2023-05-10T00:25:06.360Z,12.25
2023-05-10T00:27:34.312Z,10.35
2023-05-10T00:30:02.239Z,8.82
2023-05-10T00:32:31.152Z,10.67
2023-05-10T00:34:59.906Z,9.02
2023-05-10T00:37:28.833Z,8.43
2023-05-10T00:39:56.600Z,9.50
2023-05-10T00:42:24.785Z,9.65
2023-05-10T00:44:54.921Z,8.20
2023-05-10T00:47:23.353Z,10.52
2023-05-10T00:49:51.764Z,8.70
2023-05-10T00:52:19.876Z,10.27
2023-05-10T00:54:49.767Z,9.38
2023-05-10T00:57:18.183Z,9.47
2023-05-10T00:59:46.012Z,8.55
2023-05-10T01:02:15.151Z,9.82
2023-05-10T01:04:44.121Z,7.97
2023-05-10T01:07:12.367Z,11.00
2023-05-10T01:09:40.413Z,8.40
2023-05-10T01:12:09.063Z,9.00
2023-05-10T01:14:37.729Z,8.05
2023-05-10T01:17:07.540Z,8.38
2023-05-10T01:19:40.592Z,9.38
2023-05-10T01:22:17.437Z,10.23
2023-05-10T01:25:19.340Z,7.85
2023-05-10T01:27:58.606Z,12.10
2023-05-10T01:31:11.251Z,9.68
2023-05-10T01:33:43.168Z,10.23
2023-05-10T01:36:47.127Z,8.87
2023-05-10T01:39:16.012Z,9.68
2023-05-10T01:41:51.163Z,10.35
2023-05-10T01:44:39.096Z,11.77
2023-05-10T01:47:18.808Z,10.82
2023-05-10T01:49:52.679Z,12.83
2023-05-10T01:52:27.637Z,11.43
2023-05-10T01:55:04.664Z,8.75
2023-05-10T01:57:37.221Z,10.52
2023-05-10T02:00:08.197Z,10.20
2023-05-10T02:02:46.706Z,10.33
2023-05-10T02:05:16.201Z,10.85
2023-05-10T02:07:45.030Z,11.85
2023-05-10T02:10:15.441Z,11.10
2023-05-10T02:12:46.290Z,10.60
2023-05-10T02:15:18.826Z,12.33
2023-05-10T02:17:49.278Z,13.98
2023-05-10T02:20:20.209Z,25.02
2023-05-10T02:22:52.993Z,13.75
2023-05-10T02:25:22.935Z,15.77
2023-05-10T02:27:51.524Z,16.07
2023-05-10T02:30:20.816Z,15.23
2023-05-10T02:32:52.398Z,14.32
2023-05-10T02:35:20.985Z,18.67
2023-05-10T02:37:50.162Z,18.42
2023-05-10T02:40:19.389Z,17.47
2023-05-10T02:42:50.470Z,17.63
2023-05-10T02:45:22.502Z,21.40
2023-05-10T02:47:51.848Z,17.85
2023-05-10T02:50:24.012Z,20.05
2023-05-10T02:52:56.358Z,19.73
2023-05-10T02:55:35.450Z,19.17
2023-05-10T02:58:05.204Z,22.30
2023-05-10T03:00:33.911Z,19.30
2023-05-10T03:03:04.034Z,20.35
2023-05-10T03:05:33.344Z,17.37
2023-05-10T03:08:05.801Z,18.15
2023-05-10T03:10:39.873Z,18.63
2023-05-10T03:13:19.088Z,15.88
2023-05-10T03:15:52.842Z,17.52
2023-05-10T03:18:25.071Z,17.33
2023-05-10T03:21:00.891Z,17.65
2023-05-10T03:23:31.420Z,17.63
2023-05-10T03:26:01.150Z,16.10
2023-05-10T03:28:30.435Z,17.05
2023-05-10T03:30:59.728Z,20.27
2023-05-10T03:33:27.631Z,17.42
2023-05-10T03:35:56.910Z,18.90
2023-05-10T03:38:25.032Z,20.45
2023-05-10T03:40:53.086Z,18.92
2023-05-10T03:43:21.080Z,17.83
2023-05-10T03:45:49.404Z,19.42
2023-05-10T03:48:17.459Z,19.33
2023-05-10T03:50:46.001Z,22.67
2023-05-10T03:53:14.138Z,19.05
2023-05-10T03:55:42.172Z,21.13
2023-05-10T03:58:12.938Z,22.90
2023-05-10T04:00:45.202Z,23.73
2023-05-10T04:03:15.648Z,22.05
2023-05-10T04:05:43.990Z,20.90
2023-05-10T04:08:12.010Z,21.07
2023-05-10T04:10:40.134Z,21.85
2023-05-10T04:13:07.937Z,24.30
2023-05-10T04:15:37.233Z,24.70
2023-05-10T04:18:07.270Z,21.50
2023-05-10T04:20:36.572Z,21.70
2023-05-10T04:23:04.539Z,22.80
2023-05-10T04:25:35.474Z,25.52
2023-05-10T04:28:03.551Z,25.35
2023-05-10T04:30:31.608Z,27.42
2023-05-10T04:32:59.823Z,24.00
2023-05-10T04:35:29.713Z,24.90
2023-05-10T04:37:58.391Z,25.60
2023-05-10T04:40:27.319Z,26.30
2023-05-10T04:42:55.848Z,26.20
2023-05-10T04:45:23.846Z,26.13
2023-05-10T04:47:51.816Z,25.65
2023-05-10T04:50:20.542Z,21.80
2023-05-10T04:52:48.700Z,24.20
2023-05-10T04:55:16.542Z,23.58
2023-05-10T04:57:44.659Z,23.13
2023-05-10T05:00:13.923Z,24.15
2023-05-10T05:02:46.982Z,22.10
2023-05-10T05:05:15.235Z,21.45
2023-05-10T05:07:42.995Z,22.77
2023-05-10T05:10:11.154Z,24.03
2023-05-10T05:12:39.140Z,22.17
2023-05-10T05:15:13.226Z,22.00
2023-05-10T05:17:41.518Z,25.05
2023-05-10T05:20:10.209Z,24.30
2023-05-10T05:22:39.062Z,25.33
2023-05-10T05:25:07.567Z,25.33
2023-05-10T05:27:35.573Z,25.50
2023-05-10T05:30:03.778Z,23.45
2023-05-10T05:32:32.341Z,24.50
2023-05-10T05:35:01.476Z,19.47
2023-05-10T05:37:29.908Z,20.92
2023-05-10T05:39:57.933Z,18.80
2023-05-10T05:42:26.067Z,19.17
2023-05-10T05:44:54.006Z,18.45
2023-05-10T05:47:22.339Z,15.87
2023-05-10T05:49:50.522Z,16.25
2023-05-10T05:52:19.259Z,17.35
2023-05-10T05:54:47.139Z,18.63
2023-05-10T05:57:15.256Z,17.00
2023-05-10T05:59:45.329Z,16.63
2023-05-10T06:02:13.520Z,17.05
2023-05-10T06:04:44.400Z,21.08
2023-05-10T06:07:12.957Z,18.88
2023-05-10T06:09:41.024Z,17.88
2023-05-10T06:12:08.952Z,18.33
2023-05-10T06:14:36.958Z,24.48
2023-05-10T06:17:06.611Z,27.83
2023-05-10T06:19:34.810Z,29.60
2023-05-10T06:22:02.977Z,29.13
2023-05-10T06:24:31.204Z,28.67
2023-05-10T06:27:01.391Z,32.28
2023-05-10T06:29:29.826Z,26.60
2023-05-10T06:32:00.370Z,26.88
2023-05-10T06:34:29.174Z,26.60
2023-05-10T06:36:57.686Z,24.53
2023-05-10T06:39:25.936Z,24.45
2023-05-10T06:41:53.936Z,22.00
2023-05-10T06:44:22.121Z,21.20
2023-05-10T06:46:49.932Z,26.08
2023-05-10T06:49:18.293Z,25.60
2023-05-10T06:51:46.517Z,22.08
2023-05-10T06:54:15.014Z,21.33
2023-05-10T06:56:43.115Z,24.10
2023-05-10T06:59:11.277Z,22.85
2023-05-10T07:01:39.076Z,21.47
2023-05-10T07:04:08.832Z,24.42
2023-05-10T07:06:37.652Z,25.52
2023-05-10T07:09:05.770Z,23.65
2023-05-10T07:11:34.067Z,22.55
2023-05-10T07:14:02.264Z,24.00
2023-05-10T07:16:30.302Z,24.23
2023-05-10T07:18:58.939Z,20.15
2023-05-10T07:21:30.198Z,22.70
2023-05-10T07:23:58.624Z,22.70
2023-05-10T07:26:26.608Z,20.50
2023-05-10T07:28:54.633Z,19.08
2023-05-10T07:31:22.553Z,17.80
2023-05-10T07:33:50.835Z,18.20
2023-05-10T07:36:19.045Z,17.08
2023-05-10T07:38:47.461Z,18.37
2023-05-10T07:41:15.529Z,15.30
2023-05-10T07:43:43.858Z,15.27
2023-05-10T07:46:14.682Z,16.40
2023-05-10T07:48:43.194Z,18.20
2023-05-10T07:51:12.204Z,17.27
2023-05-10T07:53:40.424Z,19.83
2023-05-10T07:56:26.297Z,17.80
2023-05-10T07:58:55.427Z,21.27
2023-05-10T08:01:31.752Z,17.65
2023-05-10T08:03:59.993Z,17.23
2023-05-10T08:06:29.439Z,21.42
2023-05-10T08:08:58.121Z,19.70
2023-05-10T08:11:26.566Z,17.48
2023-05-10T08:13:55.217Z,20.38
2023-05-10T08:19:21.034Z,17.05
2023-05-10T08:21:49.689Z,17.83
2023-05-10T08:24:17.786Z,18.13
2023-05-10T08:26:45.639Z,17.48
2023-05-10T08:29:13.769Z,16.17
2023-05-10T08:31:41.672Z,16.52
2023-05-10T08:34:09.717Z,15.98
2023-05-10T08:36:37.890Z,14.80
2023-05-10T08:39:07.712Z,15.73
2023-05-10T08:41:41.783Z,17.10
2023-05-10T08:44:09.977Z,13.75
2023-05-10T08:46:41.101Z,18.20
2023-05-10T08:49:10.418Z,15.30
2023-05-10T08:51:40.914Z,13.75
2023-05-10T08:54:10.354Z,17.83
2023-05-10T08:56:38.340Z,16.92
2023-05-10T08:59:06.404Z,19.33
2023-05-10T09:01:36.719Z,13.10
2023-05-10T09:04:05.781Z,14.50
2023-05-10T09:06:34.588Z,15.67
2023-05-10T09:09:03.279Z,14.23
2023-05-10T09:11:31.449Z,14.70
2023-05-10T09:13:59.368Z,15.50
2023-05-10T09:16:27.469Z,14.90
2023-05-10T09:18:55.821Z,14.67
2023-05-10T09:21:24.016Z,15.07
2023-05-10T09:23:51.735Z,16.17
2023-05-10T09:26:24.540Z,16.00
2023-05-10T09:28:54.785Z,16.13
2023-05-10T09:31:23.641Z,15.17
2023-05-10T09:33:52.411Z,21.95
2023-05-10T09:36:20.580Z,16.38
2023-05-10T09:38:54.138Z,16.95
2023-05-10T09:41:26.392Z,18.23
2023-05-10T09:43:58.217Z,17.07
2023-05-10T09:46:26.616Z,18.40
2023-05-10T09:48:54.515Z,16.92
2023-05-10T09:51:28.357Z,15.65
2023-05-10T09:54:17.111Z,17.85
2023-05-10T09:56:45.138Z,14.80
2023-05-10T09:59:14.359Z,14.05
2023-05-10T10:01:42.810Z,16.35
2023-05-10T10:04:12.429Z,12.15
2023-05-10T10:06:41.434Z,11.10
2023-05-10T10:09:10.652Z,10.37
2023-05-10T10:11:40.253Z,11.10
2023-05-10T10:14:08.129Z,11.60
2023-05-10T10:16:36.485Z,9.25
2023-05-10T10:19:04.549Z,10.48
2023-05-10T10:21:34.257Z,10.07
2023-05-10T10:24:02.608Z,14.00
2023-05-10T10:26:32.002Z,11.88
2023-05-10T10:29:24.123Z,10.00
2023-05-10T10:32:22.332Z,9.80
2023-05-10T10:34:51.011Z,10.70
2023-05-10T10:37:19.286Z,11.32
2023-05-10T10:39:51.373Z,11.05
2023-05-10T10:42:45.661Z,9.07
2023-05-10T10:45:14.975Z,7.40
2023-05-10T10:47:44.705Z,8.33
2023-05-10T10:50:14.441Z,6.45
2023-05-10T10:52:43.142Z,5.70
2023-05-10T10:55:26.461Z,6.90
2023-05-10T10:58:05.878Z,7.28
2023-05-10T11:00:38.228Z,6.17
2023-05-10T11:03:14.844Z,7.40
2023-05-10T11:05:49.035Z,6.30
2023-05-10T11:08:20.967Z,7.53
2023-05-10T11:11:08.541Z,6.60
2023-05-10T11:13:43.833Z,6.43
2023-05-10T11:16:26.072Z,6.18
2023-05-10T11:19:06.159Z,5.78
2023-05-10T11:21:35.733Z,5.50
2023-05-10T11:24:07.463Z,11.07
2023-05-10T11:26:39.080Z,6.00
2023-05-10T11:29:07.346Z,8.25
2023-05-10T11:31:35.555Z,7.75
2023-05-10T11:34:03.742Z,9.77
2023-05-10T11:36:37.398Z,8.85
2023-05-10T11:39:07.241Z,9.30
2023-05-10T11:41:35.182Z,7.97
2023-05-10T11:44:03.856Z,7.38
2023-05-10T11:46:32.001Z,5.88
2023-05-10T11:49:05.763Z,6.85
2023-05-10T11:51:37.186Z,4.97
2023-05-10T11:54:13.968Z,5.55
2023-05-10T11:56:42.672Z,5.20
2023-05-10T11:59:10.711Z,8.15
2023-05-10T12:01:38.918Z,5.60
2023-05-10T12:04:07.185Z,6.37
2023-05-10T12:06:41.988Z,6.63
2023-05-10T12:09:10.266Z,6.25
2023-05-10T12:11:44.262Z,7.18
2023-05-10T12:14:12.938Z,7.32
2023-05-10T12:16:41.355Z,7.03
2023-05-10T12:19:09.830Z,6.75
2023-05-10T12:21:40.210Z,6.75
2023-05-10T12:24:09.681Z,6.22
2023-05-10T12:29:20.775Z,7.03
2023-05-10T12:31:57.099Z,5.65
2023-05-10T12:34:32.423Z,6.80
2023-05-10T12:37:01.148Z,7.63
2023-05-10T12:39:41.530Z,6.18
2023-05-10T12:42:10.278Z,10.87
2023-05-10T12:44:40.767Z,8.07
2023-05-10T12:47:08.961Z,6.75
2023-05-10T12:49:36.734Z,8.98
2023-05-10T12:52:04.770Z,7.10
2023-05-10T12:54:32.675Z,7.07
2023-05-10T12:57:00.825Z,7.13
2023-05-10T12:59:28.609Z,6.82
2023-05-10T13:01:56.781Z,8.02
2023-05-10T13:04:24.669Z,6.20
2023-05-10T13:06:59.964Z,6.50
2023-05-10T13:09:30.780Z,7.03
2023-05-10T13:11:58.870Z,6.72
2023-05-10T13:14:27.239Z,7.45
2023-05-10T13:16:55.609Z,6.13
2023-05-10T13:19:23.715Z,6.93
2023-05-10T13:21:51.841Z,6.85
2023-05-10T13:24:19.568Z,7.90
2023-05-10T13:26:47.726Z,6.65
2023-05-10T13:29:18.697Z,7.47
2023-05-10T13:31:47.295Z,9.50
2023-05-10T13:34:15.078Z,8.90
2023-05-10T13:36:43.500Z,7.47
2023-05-10T13:39:11.354Z,7.20
2023-05-10T13:41:39.653Z,8.38
2023-05-10T13:44:07.471Z,8.33
2023-05-10T13:46:35.610Z,8.55
2023-05-10T13:49:03.391Z,9.68
2023-05-10T13:51:33.289Z,8.88
2023-05-10T13:54:01.276Z,7.18
2023-05-10T13:56:29.450Z,10.67
2023-05-10T13:58:59.671Z,9.02
2023-05-10T14:01:28.282Z,11.77
2023-05-10T14:03:56.262Z,8.35
2023-05-10T14:06:24.183Z,8.18
2023-05-10T14:08:52.058Z,8.43
2023-05-10T14:11:20.645Z,9.93
2023-05-10T14:13:49.706Z,11.65
2023-05-10T14:16:17.708Z,8.82
2023-05-10T14:18:46.196Z,10.30
2023-05-10T14:21:14.580Z,9.90
2023-05-10T14:23:42.223Z,9.20
2023-05-10T14:26:10.710Z,12.07
2023-05-10T14:28:38.463Z,12.57
2023-05-10T14:31:06.854Z,11.70
2023-05-10T14:33:34.718Z,11.93
2023-05-10T14:36:04.522Z,14.50
2023-05-10T14:38:32.605Z,9.68
2023-05-10T14:41:00.595Z,10.32
2023-05-10T14:43:29.258Z,10.25
2023-05-10T14:45:56.875Z,12.20
2023-05-10T14:48:24.890Z,12.50
2023-05-10T14:50:53.915Z,10.52
2023-05-10T14:53:21.875Z,12.57
2023-05-10T14:55:49.752Z,12.05
2023-05-10T14:58:17.932Z,12.50
2023-05-10T15:00:45.742Z,11.70
2023-05-10T15:03:14.568Z,12.88
2023-05-10T15:05:42.569Z,14.27
2023-05-10T15:08:10.704Z,13.32
2023-05-10T15:10:38.462Z,13.00
2023-05-10T15:13:06.750Z,13.23
2023-05-10T15:15:34.557Z,13.73
2023-05-10T15:18:03.153Z,14.57
2023-05-10T15:20:31.451Z,12.98
2023-05-10T15:22:59.639Z,11.70
2023-05-10T15:25:27.664Z,14.27
2023-05-10T15:27:55.974Z,13.35
2023-05-10T15:30:23.946Z,15.63
2023-05-10T15:32:52.190Z,14.90
2023-05-10T15:35:20.342Z,17.10
2023-05-10T15:37:49.732Z,17.63
2023-05-10T15:40:17.666Z,15.27
2023-05-10T15:42:45.965Z,15.20
2023-05-10T15:45:14.564Z,16.08
2023-05-10T15:47:46.067Z,15.53
2023-05-10T15:50:14.306Z,18.45
2023-05-10T15:52:42.880Z,18.75
2023-05-10T15:55:13.963Z,14.85
2023-05-10T15:57:44.049Z,17.58
2023-05-10T16:00:13.671Z,16.87
2023-05-10T16:02:42.722Z,15.77
2023-05-10T16:05:11.616Z,18.27
2023-05-10T16:07:40.915Z,17.17
2023-05-10T16:10:11.284Z,17.00
2023-05-10T16:12:39.958Z,18.00
2023-05-10T16:15:09.168Z,19.13
2023-05-10T16:17:37.987Z,18.23
2023-05-10T16:20:06.888Z,18.85
2023-05-10T16:22:36.225Z,17.40
2023-05-10T16:25:04.138Z,21.87
2023-05-10T16:27:33.968Z,19.90
2023-05-10T16:30:02.154Z,19.42
2023-05-10T16:32:30.240Z,21.65
2023-05-10T16:34:59.299Z,19.48
2023-05-10T16:37:27.795Z,20.10
2023-05-10T16:39:55.648Z,18.92
2023-05-10T16:42:24.811Z,20.73
2023-05-10T16:44:52.994Z,19.50
2023-05-10T16:47:21.125Z,20.58
2023-05-10T16:49:49.920Z,25.23
2023-05-10T16:52:21.126Z,21.48
2023-05-10T16:54:49.324Z,24.02
2023-05-10T16:57:17.300Z,25.30
2023-05-10T16:59:45.347Z,23.30
2023-05-10T17:02:13.405Z,23.07
2023-05-10T17:04:43.260Z,23.38
2023-05-10T17:07:12.543Z,22.95
2023-05-10T17:09:44.462Z,25.15
2023-05-10T17:12:12.679Z,21.80
2023-05-10T17:14:40.746Z,28.57
2023-05-10T17:17:08.883Z,35.67
2023-05-10T17:19:36.842Z,35.70
2023-05-10T17:22:05.274Z,33.22
2023-05-10T17:24:33.431Z,28.65
2023-05-10T17:27:03.887Z,27.13
2023-05-10T17:29:32.609Z,26.42
2023-05-10T17:32:00.658Z,25.27
2023-05-10T17:34:28.963Z,25.40
2023-05-10T17:36:57.788Z,28.75
2023-05-10T17:39:25.869Z,27.67
2023-05-10T17:41:53.814Z,25.13
2023-05-10T17:44:21.877Z,26.50
2023-05-10T17:46:49.689Z,24.88
2023-05-10T17:49:17.734Z,24.23
2023-05-10T17:51:48.336Z,26.47
2023-05-10T17:54:16.334Z,22.95
2023-05-10T17:56:44.310Z,24.83
2023-05-10T17:59:12.397Z,23.55
2023-05-10T18:01:40.705Z,23.23
2023-05-10T18:04:08.948Z,25.27
2023-05-10T18:06:37.983Z,28.27
2023-05-10T18:09:07.654Z,24.27
2023-05-10T18:11:37.080Z,29.55
2023-05-10T18:14:05.106Z,32.10
2023-05-10T18:16:33.215Z,28.43
2023-05-10T18:19:01.816Z,31.23
2023-05-10T18:21:30.091Z,31.35
2023-05-10T18:23:58.090Z,32.50
2023-05-10T18:26:26.749Z,29.30
2023-05-10T18:28:54.718Z,27.13
2023-05-10T18:31:22.889Z,30.65
2023-05-10T18:33:51.057Z,32.92
2023-05-10T18:36:19.030Z,31.70
2023-05-10T18:38:46.842Z,33.40
2023-05-10T18:41:15.326Z,40.27
2023-05-10T18:43:43.359Z,35.33
2023-05-10T18:46:11.570Z,34.10
2023-05-10T18:48:39.845Z,33.30
2023-05-10T18:51:07.890Z,35.20
2023-05-10T18:53:35.813Z,34.30
2023-05-10T18:56:03.933Z,38.17
2023-05-10T18:58:32.090Z,37.53
2023-05-10T19:01:00.138Z,33.50
2023-05-10T19:03:30.551Z,36.92
2023-05-10T19:05:59.338Z,37.30
2023-05-10T19:08:27.257Z,39.50
2023-05-10T19:10:55.503Z,38.45
2023-05-10T19:13:25.203Z,43.45
2023-05-10T19:16:23.252Z,41.05
2023-05-10T19:18:54.215Z,43.70
2023-05-10T19:21:26.846Z,44.72
2023-05-10T19:23:57.790Z,42.45
2023-05-10T19:26:26.525Z,43.83
2023-05-10T19:28:55.296Z,47.10
2023-05-10T19:31:24.094Z,46.13
2023-05-10T19:33:53.560Z,46.63
2023-05-10T19:36:22.955Z,48.78
2023-05-10T19:38:56.846Z,51.53
2023-05-10T19:41:26.434Z,47.58
2023-05-10T19:43:55.869Z,45.83
2023-05-10T19:46:27.515Z,47.78
2023-05-10T19:48:55.754Z,45.20
2023-05-10T19:51:27.681Z,44.67
2023-05-10T19:53:57.274Z,40.50
2023-05-10T19:56:27.443Z,38.37
2023-05-10T19:58:55.694Z,34.05
2023-05-10T20:01:23.584Z,34.78
2023-05-10T20:03:52.080Z,36.22
2023-05-10T20:06:21.198Z,35.65
2023-05-10T20:08:50.892Z,36.17
2023-05-10T20:11:18.631Z,39.78
2023-05-10T20:13:47.092Z,35.25
2023-05-10T20:16:15.765Z,31.88
2023-05-10T20:18:46.765Z,29.60
2023-05-10T20:21:18.291Z,31.27
2023-05-10T20:23:47.115Z,35.47
2023-05-10T20:26:16.117Z,36.05
2023-05-10T20:28:44.188Z,37.05
2023-05-10T20:31:13.259Z,33.63
2023-05-10T20:33:41.422Z,33.93
2023-05-10T20:36:11.770Z,33.97
2023-05-10T20:38:40.265Z,34.83
2023-05-10T20:41:09.156Z,39.65
2023-05-10T20:43:37.380Z,39.65
2023-05-10T20:46:06.143Z,35.60
2023-05-10T20:48:34.559Z,41.78
2023-05-10T20:51:03.505Z,41.67
2023-05-10T20:53:31.793Z,40.55
2023-05-10T20:55:59.897Z,36.15
2023-05-10T20:58:28.055Z,38.20
2023-05-10T21:00:56.205Z,37.20
2023-05-10T21:03:24.273Z,36.63
2023-05-10T21:05:51.897Z,37.97
2023-05-10T21:08:21.289Z,37.72
2023-05-10T21:10:52.069Z,43.20
2023-05-10T21:13:24.237Z,58.95
2023-05-10T21:15:57.136Z,55.30
2023-05-10T21:18:27.673Z,40.15
2023-05-10T21:20:55.617Z,45.15
2023-05-10T21:23:27.122Z,47.67
2023-05-10T21:25:56.302Z,52.75
2023-05-10T21:28:24.854Z,54.17
2023-05-10T21:30:52.804Z,52.70
2023-05-10T21:33:21.175Z,55.25
2023-05-10T21:35:48.955Z,56.70
2023-05-10T21:38:17.434Z,55.60
2023-05-10T21:40:45.325Z,48.25
2023-05-10T21:43:13.333Z,50.42
2023-05-10T21:45:41.254Z,52.90
2023-05-10T21:48:09.321Z,60.63
2023-05-10T21:50:37.233Z,58.63
2023-05-10T21:53:05.390Z,74.47
2023-05-10T21:55:34.632Z,69.50
2023-05-10T21:58:02.566Z,67.82
2023-05-10T22:00:31.661Z,88.00
2023-05-10T22:03:00.928Z,93.22
2023-05-10T22:05:28.897Z,91.43
2023-05-10T22:07:56.749Z,96.63
2023-05-10T22:10:24.928Z,101.53
2023-05-10T22:12:53.250Z,99.63
2023-05-10T22:15:20.884Z,102.90
2023-05-10T22:17:49.082Z,90.18
2023-05-10T22:20:17.589Z,91.30
2023-05-10T22:22:46.320Z,90.05
2023-05-10T22:25:13.870Z,91.95
2023-05-10T22:27:41.802Z,91.93
2023-05-10T22:30:10.205Z,94.65
2023-05-10T22:32:38.421Z,98.00
2023-05-10T22:35:06.783Z,87.38
2023-05-10T22:37:35.027Z,92.22
2023-05-10T22:40:02.961Z,87.97
2023-05-10T22:42:31.320Z,80.55
2023-05-10T22:44:59.343Z,74.50
2023-05-10T22:47:27.350Z,80.85
2023-05-10T22:49:56.184Z,76.47
2023-05-10T22:52:24.877Z,80.73
2023-05-10T22:54:52.844Z,76.32
2023-05-10T22:57:20.729Z,80.22
2023-05-10T22:59:49.499Z,85.75
2023-05-10T23:02:17.528Z,73.22
2023-05-10T23:04:45.304Z,76.30
2023-05-10T23:07:14.796Z,72.15
2023-05-10T23:09:42.715Z,76.60
2023-05-10T23:12:11.135Z,80.55
2023-05-10T23:14:39.284Z,77.63
2023-05-10T23:17:07.239Z,73.70
2023-05-10T23:19:35.757Z,74.38
2023-05-10T23:22:14.572Z,70.72
2023-05-10T23:24:47.599Z,75.57
2023-05-10T23:27:17.877Z,71.90
2023-05-10T23:29:47.469Z,63.77
2023-05-10T23:32:17.434Z,64.95
2023-05-10T23:34:46.602Z,70.80
2023-05-10T23:37:18.524Z,68.38
2023-05-10T23:39:54.304Z,65.60
2023-05-10T23:42:23.606Z,72.83
2023-05-10T23:44:57.138Z,77.55
2023-05-10T23:47:25.287Z,74.90
2023-05-10T23:49:53.222Z,73.85
2023-05-10T23:52:26.061Z,77.88
2023-05-10T23:54:54.674Z,76.23
2023-05-10T23:57:22.589Z,80.97
2023-05-10T23:59:50.717Z,87.15
